VEILLE D'ORAGES VIOLENTS EN VIGUEUR

Rapports Métar

 

CWEW - L'assomption, Quebec, Canada
Distance de la station: SSE 46km
Mise à jour: 21/05/2018 21:00

 Vents de O
Vent: O 4 km/h
Température: 19°C
Point de rosée: 4°C
Humidité: 37%
2018/05/22 01:00 CWEW 220100Z AUTO 27002KT 19/04 RMK AO1 SLP188 T01920043 51018
CWHM - Varennes, Quebec, Canada
Distance de la station: SSE 58km
Mise à jour: 25/10/2016 10:00
PAS à jour

 Vents de O
Vent: O 19 km/h, Rafale: 28 km/h
Température: 4°C
Refroidissement éolien: 0°C
Point de rosée: -2°C
Humidité: 65%
2016/10/25 14:00 CWHM 251400Z AUTO 28010G15KT 04/M02 RMK AO1 PK WND 28018/1302 T00391017
 
CWBS - Lac St Pierre (a, Quebec, Canada
Distance de la station: E 60km
Mise à jour: 21/05/2018 21:00

 Vents de N
Vent: N 11 km/h
Température: 22°C
Point de rosée: -2°C
Humidité: 20%
2018/05/22 01:00 CWBS 220100Z AUTO 35006KT 22/M02 RMK AO1 T02201023
CYMX - Montreal/Mirabel, Quebec, Canada
Distance de la station: SSO 62km
Mise à jour: 21/05/2018 21:00
nuageux
nuageux
 Vents de NO
Vent: NO 6 km/h
Température: 18°C
Point de rosée: 4°C
Humidité: 40%
Baromètre: 1019 hPa
Nuages: nuageux
Visibilité: 40 km
Détail des nuages: Few Clouds 7010 m
nuageux 7925 m
2018/05/22 01:00 CYMX 220100Z 31003KT 25SM FEW230 BKN260 18/04 A3009 RMK CC2CI5 SLP192 DENSITY ALT 500FT
 
CWJT - St Jovite (autob, Quebec, Canada
Distance de la station: OSO 64km
Mise à jour: 21/05/2018 21:00

 Vents de NE
Vent: NE 2 km/h
Température: 14°C
Point de rosée: 6°C
Humidité: 59%
2018/05/22 01:00 CWJT 220100Z AUTO 05001KT 14/06 RMK AO1 SLP194 T01420057 51013
CWTA - Mc Tavish (aut), Quebec, Canada
Distance de la station: S 77km
Mise à jour: 21/05/2018 21:00

 Vents de OSO
Vent: OSO 4 km/h
Température: 21°C
Point de rosée: 4°C
Humidité: 33%
2018/05/22 01:00 CWTA 220100Z AUTO 24002KT 21/04 RMK AO1 SLP187 T02050042 53016
 
CYHU - Saint Hubert Arp, Quebec, Canada
Distance de la station: SSE 77km
Mise à jour: 21/05/2018 21:00
clair
clair
 Vents de ONO
Vent: ONO 9 km/h
Température: 21°C
Point de rosée: 3°C
Humidité: 31%
Baromètre: 1018.3 hPa
Nuages: clair
Visibilité: 14 km
2018/05/22 01:00 CYHU 220100Z AUTO 29005KT 9SM CLR 21/03 A3007 RMK SLP184 DENSITY ALT 600FT
CYUL - Montreal/Dorval, Quebec, Canada
Distance de la station: S 80km
Mise à jour: 21/05/2018 21:00
nuageux
nuageux
 Vents de SSO
Vent: SSO 9 km/h
Température: 20°C
Point de rosée: 8°C
Humidité: 46%
Baromètre: 1018.6 hPa
Nuages: nuageux
Visibilité: 24 km
Détail des nuages: Few Clouds 6706 m
nuageux 8230 m
2018/05/22 01:00 CYUL 220100Z 21005KT 15SM FEW220 BKN270 20/08 A3008 RMK CC1CI6 CC TR SLP187 DENSITY ALT 600FT
 
CWNQ - Nicolet (autob), Quebec, Canada
Distance de la station: E 81km
Mise à jour: 21/05/2018 21:00

 Vents de N
Vent: N 7 km/h
Température: 20°C
Point de rosée: 0°C
Humidité: 26%
2018/05/22 01:00 CWNQ 220100Z AUTO 36004KT 20/M00 RMK AO1 SLP177 T02021002 52021
CWVQ - Ste Anne De Bell, Quebec, Canada
Distance de la station: S 87km
Mise à jour: 21/05/2018 21:00

 Vents de OSO
Vent: OSO 13 km/h
Température: 20°C
Point de rosée: 8°C
Humidité: 46%
2018/05/22 01:00 CWVQ 220100Z AUTO 24007KT 20/08 RMK AO1 SLP189 T02010076 53015
 
CWTY - Trois Rivieres, Quebec, Canada
Distance de la station: ENE 93km
Mise à jour: 21/05/2018 21:00

 Vents de NO
Vent: NO 6 km/h
Température: 19°C
Point de rosée: 0°C
Humidité: 28%
2018/05/22 01:00 CWTY 220100Z AUTO 31003KT 19/00 RMK AO1 SLP175 T01870000 53024
CXSH - Shawinigan, Quebec, Canada
Distance de la station: ENE 97km
Mise à jour: 21/05/2018 21:00

 Vents de N
Vent: N 4 km/h
Température: 18°C
Point de rosée: 0°C
Humidité: 30%
2018/05/22 01:00 CXSH 220100Z AUTO 35002KT 18/M00 RMK AO1 SLP181 T01781003 51021
 
CWIZ - L'acadie, Quebec, Canada
Distance de la station: SSE 104km
Mise à jour: 21/05/2018 21:00

 Vents de O
Vent: O 7 km/h
Température: 20°C
Point de rosée: 8°C
Humidité: 46%
2018/05/22 01:00 CWIZ 220100Z AUTO 27004KT 20/08 RMK AO1 T02000082
CWIT - St Clothilde (a, Quebec, Canada
Distance de la station: S 113km
Mise à jour: 21/05/2018 21:00

 Vents de O
Vent: O 7 km/h
Température: 20°C
Point de rosée: 8°C
Humidité: 46%
2018/05/22 01:00 CWIT 220100Z AUTO 27004KT 20/08 RMK AO1 SLP188 T01960083 53012
 
CMGB - Granby, Quebec, Canada
Distance de la station: SE 116km
Mise à jour: 21/05/2018 21:45

 Vents de O
Vent: O 2 km/h
Température: 15°C
Point de rosée: 9°C
Humidité: 68%
2018/05/22 01:45 CMGB 220145Z AUTO 27001KT 15/09 RMK AO1 SLP185 T01490089 53014
CWBZ - St Anicet, Quebec, Canada
Distance de la station: SSO 127km
Mise à jour: 21/05/2018 20:00
PAS à jour

 Vents de O
Vent: O 13 km/h
Température: 21°C
Point de rosée: 8°C
Humidité: 43%
2018/05/22 00:00 CWBZ 220000Z AUTO 26007KT 21/08 RMK AO1 SLP189 T02070077 53010
 
CWHQ - Deschambaults, Quebec, Canada
Distance de la station: ENE 144km
Mise à jour: 20/05/2018 10:00
PAS à jour

 Vents de NO
Vent: NO 9 km/h
Température: 15°C
Point de rosée: 13°C
Humidité: 88%
2018/05/20 14:00 CWHQ 201400Z AUTO 31005KT 15/13 RMK AO1 T01460134
CWFQ - Frelighsburg, Quebec, Canada
Distance de la station: SSE 145km
Mise à jour: 21/05/2018 21:00

 Vents de OSO
Vent: OSO 4 km/h
Température: 18°C
Point de rosée: 7°C
Humidité: 49%
2018/05/22 01:00 CWFQ 220100Z AUTO 24002KT 18/07 RMK AO1 SLP190 T01760072 53010
 
KFSO - Highgate, Vermont, USA
Distance de la station: SSE 147km
Mise à jour: 21/05/2018 21:55
clair
clair
 Vents de calm
Vent: calme
Température: 16°C
Point de rosée: 8°C
Humidité: 59%
Baromètre: 1019.6 hPa
Nuages: clair
Visibilité: 16 km
2018/05/22 01:55 KFSO 220155Z AUTO 00000KT 10SM CLR 16/08 A3011 RMK AO2 T01580081
CWDQ - La Tuque, Quebec, Canada
Distance de la station: NNE 154km
Mise à jour: 21/05/2018 21:00

 Vents de ONO
Vent: ONO 2 km/h
Température: 13°C
Point de rosée: -4°C
Humidité: 31%
2018/05/22 01:00 CWDQ 220100Z AUTO 29001KT 13/M04 RMK AO1 SLP190 T01281044 53015